This is the latest recevied weather packets stored in our database for station/object IV3ONZ. If no packets are shown the sender has not sent any weather packets the latest 10 day(s).
| Time | Temp. | Humidity | Pressure | Rain* | Wind** | Luminosity | Snow |
|---|---|---|---|---|---|---|---|
| 1778109604 | 15.56° C | 87% | 1014.5 hPa | 0 mm | - | 0 W/m² | - |
| 1778107803 | 15° C | 87% | 1014.6 hPa | 0 mm | - | 0 W/m² | - |
| 1778104804 | 15° C | 86% | 1014.4 hPa | 0 mm | - | 0 W/m² | - |
| 1778103304 | 15.56° C | 83% | 1014.3 hPa | 0 mm | - | 0 W/m² | - |
| 1778102704 | 15.56° C | 83% | 1014.3 hPa | 0 mm | - | 0 W/m² | - |
| 1778100004 | 16.11° C | 81% | 1014.4 hPa | 0 mm | - | 0 W/m² | - |
| 1778099836 | 16.11° C | 81% | 1014.5 hPa | 0 mm | - | 0 W/m² | - |
| 1778097304 | 15.56° C | 86% | 1014.3 hPa | 0 mm | - | 0 W/m² | - |
| 1778096104 | 16.11° C | 88% | 1014 hPa | 0 mm | - | 0 W/m² | - |
| 1778094604 | 16.67° C | 87% | 1013.7 hPa | 0 mm | - | 0 W/m² | - |
| 1778092804 | 16.67° C | 87% | 1013.2 hPa | 0 mm | - | 0 W/m² | - |
| 1778090104 | 16.67° C | 91% | 1012.9 hPa | 0 mm | - | 4 W/m² | - |
| 1778088604 | 16.67° C | 92% | 1012.8 hPa | 1.52 mm | - | 17 W/m² | - |
| 1778084704 | 18.33° C | 82% | 1012.4 hPa | 0 mm | - | 15 W/m² | - |
| 1778082003 | 18.33° C | 82% | 1012.8 hPa | 0 mm | - | 149 W/m² | - |
| 1778081704 | 18.33° C | 82% | 1013 hPa | 0 mm | - | 92 W/m² | - |
| 1778081404 | 18.33° C | 82% | 1013 hPa | 0 mm | - | 127 W/m² | - |
| 1778080933 | 18.33° C | 82% | 1012.8 hPa | 0 mm | - | 177 W/m² | - |
| 1778080334 | 18.33° C | 82% | 1013.1 hPa | 0 mm | - | 238 W/m² | - |
| 1778077504 | 18.33° C | 85% | 1013.4 hPa | 0 mm | - | 431 W/m² | - |
| 1778076604 | 17.22° C | 87% | 1013.7 hPa | 0 mm | - | 259 W/m² | - |
| 1778074803 | 16.67° C | 88% | 1013.7 hPa | 0 mm | - | 78 W/m² | - |
| 1778073904 | 16.67° C | 89% | 1014.1 hPa | 0 mm | - | 128 W/m² | - |
| 1778071204 | 17.22° C | 88% | 1014.4 hPa | 0 mm | - | 149 W/m² | - |
| 1778067004 | 15.56° C | 90% | 1014.3 hPa | 0.25 mm | - | 172 W/m² | - |
* Rain latest hour (hover to see other rain measurements)
** Current wind speed in m/s (hover to see current wind gust speed)